Terminal Aerodrome Forecast
Issued by NWS Sioux Falls, SD

Home | Current Version | Previous Version | Text Only | Print | Product List | Glossary On
Versions: 1 2 3 4 5 6 7 8 9 10 11 12 13 14 15 16
000
FTUS43 KFSD 291720
TAFHON
TAF
KHON 291720Z 2918/3018 32025G35KT P6SM SKC
     FM292200 32020G26KT P6SM SKC
     FM300000 31009KT P6SM SKC
     FM300200 21005KT P6SM SKC
     FM300700 17006KT P6SM FEW070 BKN200
     FM301500 25009KT P6SM BKN200=

USA.gov is the U.S. government's official web portal to all federal, state and local government web resources and services.